createdAt,value
2023-02-09T00:00:35.804Z,60.96
2023-02-09T00:03:06.402Z,61.51
2023-02-09T00:05:35.018Z,61.49
2023-02-09T00:08:03.392Z,60.71
2023-02-09T00:10:31.766Z,60.45
2023-02-09T00:13:19.943Z,60.64
2023-02-09T00:15:50.081Z,60.30
2023-02-09T00:18:18.648Z,60.75
2023-02-09T00:20:47.417Z,60.59
2023-02-09T00:23:15.694Z,60.79
2023-02-09T00:25:44.068Z,60.59
2023-02-09T00:28:13.992Z,60.30
2023-02-09T00:30:42.415Z,60.05
2023-02-09T00:33:10.805Z,60.09
2023-02-09T00:35:41.663Z,60.36
2023-02-09T00:38:10.970Z,60.57
2023-02-09T00:40:40.988Z,61.06
2023-02-09T00:43:09.849Z,61.13
2023-02-09T00:45:39.626Z,60.89
2023-02-09T00:48:08.028Z,60.79
2023-02-09T00:50:36.419Z,60.59
2023-02-09T00:53:04.778Z,60.81
2023-02-09T00:55:33.244Z,60.56
2023-02-09T00:58:01.579Z,60.94
2023-02-09T01:00:29.970Z,60.77
2023-02-09T01:03:10.417Z,60.76
2023-02-09T01:05:40.317Z,60.75
2023-02-09T01:08:09.372Z,61.02
2023-02-09T01:10:38.339Z,61.04
2023-02-09T01:13:07.005Z,61.17
2023-02-09T01:15:35.342Z,60.54
2023-02-09T01:18:03.709Z,60.55
2023-02-09T01:20:33.419Z,60.92
2023-02-09T01:23:02.019Z,60.19
2023-02-09T01:25:30.476Z,60.55
2023-02-09T01:28:03.104Z,60.43
2023-02-09T01:30:31.524Z,60.20
2023-02-09T01:32:59.900Z,60.32
2023-02-09T01:35:29.398Z,60.24
2023-02-09T01:38:00.045Z,60.49
2023-02-09T01:40:28.400Z,60.28
2023-02-09T01:42:56.889Z,60.29
2023-02-09T01:45:30.733Z,60.32
2023-02-09T01:48:01.600Z,60.38
2023-02-09T01:50:34.596Z,60.89
2023-02-09T01:53:05.678Z,60.94
2023-02-09T01:55:37.925Z,61.03
2023-02-09T01:58:11.339Z,60.70
2023-02-09T02:00:39.771Z,60.91
2023-02-09T02:03:13.481Z,60.66
2023-02-09T02:05:45.302Z,61.39
2023-02-09T02:08:20.274Z,61.13
2023-02-09T02:10:48.691Z,61.30
2023-02-09T02:13:17.056Z,60.96
2023-02-09T02:15:57.577Z,61.23
2023-02-09T02:18:36.309Z,61.43
2023-02-09T02:21:38.901Z,61.35
2023-02-09T02:24:40.536Z,62.10
2023-02-09T02:27:11.606Z,61.47
2023-02-09T02:30:20.123Z,61.49
2023-02-09T02:32:59.170Z,61.08
2023-02-09T02:35:34.539Z,60.72
2023-02-09T02:38:13.113Z,60.95
2023-02-09T02:40:55.993Z,59.97
2023-02-09T02:43:37.682Z,60.22
2023-02-09T02:46:11.079Z,60.61
2023-02-09T02:48:44.453Z,60.49
2023-02-09T02:51:19.623Z,60.39
2023-02-09T02:53:53.808Z,60.53
2023-02-09T02:56:26.035Z,60.54
2023-02-09T02:58:58.142Z,60.90
2023-02-09T03:01:30.900Z,60.49
2023-02-09T03:04:09.194Z,60.63
2023-02-09T03:06:38.519Z,61.04
2023-02-09T03:09:07.348Z,61.48
2023-02-09T03:11:39.006Z,60.90
2023-02-09T03:14:24.879Z,60.86
2023-02-09T03:17:14.618Z,60.90
2023-02-09T03:19:52.265Z,60.75
2023-02-09T03:22:28.627Z,61.33
2023-02-09T03:25:03.532Z,61.30
2023-02-09T03:27:36.523Z,61.48
2023-02-09T03:30:07.190Z,61.11
2023-02-09T03:32:39.468Z,61.98
2023-02-09T03:35:13.124Z,61.71
2023-02-09T03:37:41.550Z,62.11
2023-02-09T03:40:10.976Z,62.20
2023-02-09T03:42:39.478Z,61.67
2023-02-09T03:45:09.021Z,61.58
2023-02-09T03:47:41.134Z,61.61
2023-02-09T03:50:11.288Z,61.54
2023-02-09T03:52:39.954Z,60.89
2023-02-09T03:55:08.693Z,61.28
2023-02-09T03:57:39.246Z,61.09
2023-02-09T04:00:08.969Z,62.06
2023-02-09T04:02:37.510Z,62.07
2023-02-09T04:05:06.496Z,61.54
2023-02-09T04:07:36.569Z,61.35
2023-02-09T04:10:06.474Z,61.10
2023-02-09T04:12:36.555Z,61.22
2023-02-09T04:15:05.224Z,60.85
2023-02-09T04:17:33.546Z,61.29
2023-02-09T04:20:02.033Z,61.39
2023-02-09T04:22:30.364Z,61.49
2023-02-09T04:25:00.115Z,61.35
2023-02-09T04:27:28.565Z,61.29
2023-02-09T04:29:56.974Z,61.40
2023-02-09T04:32:25.297Z,61.58
2023-02-09T04:34:53.610Z,61.37
2023-02-09T04:37:21.969Z,61.28
2023-02-09T04:39:50.275Z,61.85
2023-02-09T04:42:19.941Z,61.22
2023-02-09T04:44:48.306Z,61.18
2023-02-09T04:47:22.359Z,61.55
2023-02-09T04:49:50.847Z,61.44
2023-02-09T04:52:19.226Z,61.37
2023-02-09T04:54:47.787Z,61.55
2023-02-09T04:57:33.945Z,61.74
2023-02-09T05:00:03.703Z,61.68
2023-02-09T05:02:33.942Z,61.94
2023-02-09T05:05:02.272Z,61.25
2023-02-09T05:07:30.598Z,61.52
2023-02-09T05:09:58.972Z,61.71
2023-02-09T05:12:27.403Z,61.62
2023-02-09T05:14:55.723Z,61.32
2023-02-09T05:17:35.433Z,61.60
2023-02-09T05:20:04.177Z,61.76
2023-02-09T05:22:33.012Z,61.58
2023-02-09T05:25:01.315Z,61.24
2023-02-09T05:27:29.668Z,61.52
2023-02-09T05:29:57.984Z,61.78
2023-02-09T05:32:26.458Z,61.51
2023-02-09T05:34:56.236Z,61.96
2023-02-09T05:37:24.567Z,61.70
2023-02-09T05:39:52.988Z,61.44
2023-02-09T05:42:21.359Z,61.93
2023-02-09T05:44:51.453Z,61.25
2023-02-09T05:47:22.423Z,61.78
2023-02-09T05:49:50.773Z,61.73
2023-02-09T05:52:21.075Z,62.11
2023-02-09T05:54:50.197Z,62.02
2023-02-09T05:57:19.084Z,62.27
2023-02-09T05:59:47.518Z,62.29
2023-02-09T06:02:15.944Z,61.84
2023-02-09T06:04:44.473Z,62.10
2023-02-09T06:07:12.807Z,62.09
2023-02-09T06:09:42.563Z,61.47
2023-02-09T06:12:10.944Z,62.01
2023-02-09T06:14:39.303Z,61.88
2023-02-09T06:17:07.659Z,61.61
2023-02-09T06:19:35.918Z,61.92
2023-02-09T06:22:04.341Z,61.82
2023-02-09T06:24:32.680Z,61.36
2023-02-09T06:27:02.415Z,61.36
2023-02-09T06:29:31.384Z,61.91
2023-02-09T06:31:59.813Z,62.20
2023-02-09T06:34:28.524Z,62.17
2023-02-09T06:36:56.887Z,61.75
2023-02-09T06:39:26.344Z,61.62
2023-02-09T06:41:54.696Z,61.89
2023-02-09T06:44:24.382Z,62.23
2023-02-09T06:46:54.573Z,61.45
2023-02-09T06:49:24.009Z,61.86
2023-02-09T06:51:52.485Z,61.67
2023-02-09T06:54:21.269Z,61.51
2023-02-09T06:56:49.811Z,61.37
2023-02-09T06:59:18.217Z,61.79
2023-02-09T07:01:53.461Z,61.40
2023-02-09T07:04:22.860Z,61.78
2023-02-09T07:06:51.250Z,61.74
2023-02-09T07:09:19.568Z,61.62
2023-02-09T07:11:47.959Z,61.58
2023-02-09T07:14:16.350Z,61.71
2023-02-09T07:16:44.720Z,61.70
2023-02-09T07:19:14.401Z,61.13
2023-02-09T07:21:42.772Z,61.17
2023-02-09T07:24:11.139Z,61.30
2023-02-09T07:26:39.431Z,60.97
2023-02-09T07:29:07.856Z,60.91
2023-02-09T07:31:36.394Z,61.30
2023-02-09T07:34:04.813Z,61.37
2023-02-09T07:36:34.538Z,60.87
2023-02-09T07:39:02.949Z,61.28
2023-02-09T07:41:31.493Z,61.33
2023-02-09T07:43:59.889Z,60.89
2023-02-09T07:46:28.383Z,61.25
2023-02-09T07:48:59.457Z,60.47
2023-02-09T07:51:29.656Z,60.68
2023-02-09T07:54:00.864Z,60.70
2023-02-09T07:56:29.814Z,60.69
2023-02-09T07:58:58.632Z,61.02
2023-02-09T08:01:27.130Z,60.74
2023-02-09T08:03:55.560Z,60.93
2023-02-09T08:06:40.967Z,60.72
2023-02-09T08:09:12.457Z,60.85
2023-02-09T08:11:45.988Z,60.87
2023-02-09T08:14:18.654Z,60.92
2023-02-09T08:16:49.958Z,60.80
2023-02-09T08:19:22.784Z,60.98
2023-02-09T08:21:52.051Z,61.04
2023-02-09T08:24:22.457Z,61.08
2023-02-09T08:26:50.843Z,61.03
2023-02-09T08:29:19.343Z,61.14
2023-02-09T08:31:52.374Z,61.14
2023-02-09T08:34:20.782Z,61.14
2023-02-09T08:36:49.150Z,61.28
2023-02-09T08:39:17.459Z,61.17
2023-02-09T08:41:47.210Z,61.09
2023-02-09T08:44:15.566Z,60.92
2023-02-09T08:46:44.325Z,60.96
2023-02-09T08:49:13.114Z,61.16
2023-02-09T08:51:41.553Z,60.90
2023-02-09T08:54:10.150Z,60.84
2023-02-09T08:56:38.569Z,60.82
2023-02-09T08:59:08.254Z,60.72
2023-02-09T09:01:36.780Z,60.67
2023-02-09T09:04:05.380Z,60.53
2023-02-09T09:06:34.032Z,60.79
2023-02-09T09:09:02.366Z,60.58
2023-02-09T09:11:30.746Z,60.58
2023-02-09T09:13:59.810Z,60.55
2023-02-09T09:16:29.592Z,60.49
2023-02-09T09:18:58.001Z,60.51
2023-02-09T09:21:26.446Z,60.45
2023-02-09T09:23:54.758Z,60.33
2023-02-09T09:26:23.241Z,60.24
2023-02-09T09:28:52.039Z,60.10
2023-02-09T09:31:21.014Z,60.17
2023-02-09T09:33:50.785Z,60.10
2023-02-09T09:36:20.673Z,59.85
2023-02-09T09:38:49.007Z,59.64
2023-02-09T09:41:25.477Z,59.87
2023-02-09T09:43:55.715Z,59.78
2023-02-09T09:46:33.619Z,59.73
2023-02-09T09:49:04.442Z,59.27
2023-02-09T09:51:40.281Z,59.16
2023-02-09T09:54:15.171Z,59.35
2023-02-09T09:56:43.509Z,59.43
2023-02-09T09:59:17.872Z,59.21
2023-02-09T10:01:47.502Z,59.34
2023-02-09T10:04:17.911Z,59.45
2023-02-09T10:06:48.564Z,58.88
2023-02-09T10:09:29.953Z,58.64
2023-02-09T10:12:06.590Z,58.62
2023-02-09T10:14:34.944Z,58.80
2023-02-09T10:17:03.479Z,58.41
2023-02-09T10:19:34.029Z,58.28
2023-02-09T10:22:02.883Z,58.29
2023-02-09T10:24:33.445Z,58.24
2023-02-09T10:27:13.536Z,58.28
2023-02-09T10:29:42.729Z,58.20
2023-02-09T10:32:17.146Z,57.75
2023-02-09T10:34:50.516Z,57.68
2023-02-09T10:37:23.012Z,57.55
2023-02-09T10:40:07.228Z,57.46
2023-02-09T10:42:37.741Z,57.77
2023-02-09T10:45:13.602Z,57.22
2023-02-09T10:47:58.776Z,57.41
2023-02-09T10:50:28.855Z,57.36
2023-02-09T10:53:00.523Z,57.11
2023-02-09T10:55:35.751Z,56.83
2023-02-09T10:58:15.415Z,56.41
2023-02-09T11:00:51.384Z,56.24
2023-02-09T11:03:21.545Z,56.42
2023-02-09T11:06:00.076Z,55.92
2023-02-09T11:08:46.622Z,55.95
2023-02-09T11:11:29.002Z,55.79
2023-02-09T11:13:57.623Z,55.91
2023-02-09T11:16:50.764Z,55.16
2023-02-09T11:19:36.438Z,55.16
2023-02-09T11:22:13.117Z,55.06
2023-02-09T11:24:52.293Z,55.10
2023-02-09T11:27:35.837Z,54.71
2023-02-09T11:30:18.949Z,54.42
2023-02-09T11:32:52.535Z,54.61
2023-02-09T11:35:25.156Z,54.57
2023-02-09T11:38:01.933Z,54.37
2023-02-09T11:40:37.337Z,54.02
2023-02-09T11:43:15.703Z,53.85
2023-02-09T11:45:47.270Z,53.66
2023-02-09T11:48:23.520Z,53.13
2023-02-09T11:51:04.624Z,52.73
2023-02-09T11:53:48.661Z,52.87
2023-02-09T11:56:20.853Z,53.28
2023-02-09T11:58:56.006Z,53.04
2023-02-09T12:01:34.281Z,52.82
2023-02-09T12:04:10.746Z,52.40
2023-02-09T12:06:42.531Z,52.39
2023-02-09T12:09:27.047Z,51.71
2023-02-09T12:12:05.854Z,51.71
2023-02-09T12:14:49.070Z,51.32
2023-02-09T12:17:22.546Z,51.84
2023-02-09T12:19:56.980Z,51.20
2023-02-09T12:23:04.470Z,51.06
2023-02-09T12:25:52.130Z,51.25
2023-02-09T12:28:46.413Z,50.48
2023-02-09T12:31:24.242Z,51.48
2023-02-09T12:34:15.857Z,51.02
2023-02-09T12:37:10.599Z,50.66
2023-02-09T12:39:38.905Z,51.19
2023-02-09T12:42:29.428Z,50.31
2023-02-09T12:45:00.597Z,51.04
2023-02-09T12:47:58.750Z,50.52
2023-02-09T12:50:53.504Z,50.44
2023-02-09T12:53:42.624Z,50.07
2023-02-09T12:56:34.396Z,50.75
2023-02-09T12:59:19.778Z,50.42
2023-02-09T13:02:24.744Z,50.09
2023-02-09T13:05:02.921Z,50.62
2023-02-09T13:07:41.167Z,50.55
2023-02-09T13:10:21.956Z,50.34
2023-02-09T13:12:55.929Z,50.37
2023-02-09T13:15:30.165Z,50.30
2023-02-09T13:18:15.886Z,49.61
2023-02-09T13:21:03.120Z,49.45
2023-02-09T13:23:36.988Z,49.69
2023-02-09T13:26:18.870Z,49.47
2023-02-09T13:28:47.643Z,50.18
2023-02-09T13:31:37.052Z,49.39
2023-02-09T13:34:19.591Z,49.56
2023-02-09T13:36:57.528Z,49.07
2023-02-09T13:39:27.616Z,49.55
2023-02-09T13:41:56.277Z,49.33
2023-02-09T13:44:29.985Z,49.11
2023-02-09T13:47:01.868Z,48.62
2023-02-09T13:49:31.398Z,48.71
2023-02-09T13:52:10.053Z,47.92
2023-02-09T13:54:38.669Z,48.34
2023-02-09T13:57:11.422Z,47.93
2023-02-09T13:59:42.709Z,47.67
2023-02-09T14:02:22.496Z,46.88
2023-02-09T14:04:54.215Z,47.31
2023-02-09T14:07:26.725Z,47.08
2023-02-09T14:10:02.534Z,46.90
2023-02-09T14:12:52.541Z,46.78
2023-02-09T14:15:43.011Z,46.63
2023-02-09T14:18:29.097Z,46.26
2023-02-09T14:21:03.410Z,46.34
2023-02-09T14:23:35.337Z,46.48
2023-02-09T14:26:06.082Z,46.33
2023-02-09T14:28:36.218Z,46.33
2023-02-09T14:31:06.084Z,46.32
2023-02-09T14:33:38.556Z,46.06
2023-02-09T14:36:07.659Z,45.58
2023-02-09T14:38:38.687Z,45.60
2023-02-09T14:41:30.514Z,44.51
2023-02-09T14:44:03.268Z,45.00
2023-02-09T14:46:52.848Z,44.32
2023-02-09T14:49:23.202Z,45.12
2023-02-09T14:51:59.860Z,44.64
2023-02-09T14:54:30.722Z,45.46
2023-02-09T14:57:00.901Z,44.92
2023-02-09T14:59:29.388Z,44.60
2023-02-09T15:01:57.721Z,44.74
2023-02-09T15:04:28.030Z,44.84
2023-02-09T15:07:02.715Z,44.78
2023-02-09T15:09:36.315Z,45.35
2023-02-09T15:12:05.444Z,45.50
2023-02-09T15:14:39.085Z,45.59
2023-02-09T15:17:15.644Z,45.32
2023-02-09T15:19:49.473Z,45.76
2023-02-09T15:22:18.243Z,45.77
2023-02-09T15:24:48.569Z,45.54
2023-02-09T15:27:24.748Z,45.69
2023-02-09T15:29:53.483Z,45.74
2023-02-09T15:32:23.305Z,45.30
2023-02-09T15:34:54.005Z,45.50
2023-02-09T15:37:25.368Z,45.90
2023-02-09T15:39:58.431Z,45.47
2023-02-09T15:42:44.272Z,45.80
2023-02-09T15:45:35.928Z,45.61
2023-02-09T15:48:05.072Z,45.87
2023-02-09T15:50:36.526Z,45.71
2023-02-09T15:53:07.556Z,46.50
2023-02-09T15:55:37.323Z,46.06
2023-02-09T15:58:12.225Z,46.29
2023-02-09T16:00:40.536Z,46.23
2023-02-09T16:03:15.392Z,46.39
2023-02-09T16:05:46.692Z,46.29
2023-02-09T16:08:20.662Z,46.40
2023-02-09T16:10:49.604Z,46.53
2023-02-09T16:13:19.790Z,46.65
2023-02-09T16:15:49.403Z,46.34
2023-02-09T16:18:17.828Z,47.08
2023-02-09T16:20:50.988Z,46.77
2023-02-09T16:23:22.974Z,46.59
2023-02-09T16:25:52.667Z,47.08
2023-02-09T16:28:22.480Z,47.18
2023-02-09T16:30:53.244Z,47.03
2023-02-09T16:33:24.378Z,47.58
2023-02-09T16:35:57.203Z,47.52
2023-02-09T16:38:26.842Z,47.51
2023-02-09T16:40:56.474Z,47.70
2023-02-09T16:43:25.403Z,47.57
2023-02-09T16:46:03.159Z,48.03
2023-02-09T16:48:34.542Z,47.86
2023-02-09T16:51:04.786Z,48.08
2023-02-09T16:53:37.525Z,48.20
2023-02-09T16:56:10.142Z,48.26
2023-02-09T16:58:39.744Z,48.60
2023-02-09T17:01:13.810Z,48.29
2023-02-09T17:03:43.647Z,48.67
2023-02-09T17:06:17.450Z,48.53
2023-02-09T17:08:45.910Z,48.70
2023-02-09T17:11:18.424Z,49.02
2023-02-09T17:13:46.988Z,49.08
2023-02-09T17:16:19.849Z,49.35
2023-02-09T17:18:50.606Z,49.36
2023-02-09T17:21:23.861Z,49.83
2023-02-09T17:23:53.456Z,49.80
2023-02-09T17:26:22.389Z,49.65
2023-02-09T17:28:51.373Z,49.79
2023-02-09T17:31:23.438Z,49.83
2023-02-09T17:33:53.818Z,49.87
2023-02-09T17:36:27.587Z,50.40
2023-02-09T17:38:57.590Z,50.24
2023-02-09T17:41:33.755Z,50.60
2023-02-09T17:44:22.362Z,50.88
2023-02-09T17:46:54.646Z,50.72
2023-02-09T17:49:23.307Z,50.95
2023-02-09T17:51:53.094Z,50.83
2023-02-09T17:54:22.380Z,51.30
2023-02-09T17:56:50.735Z,51.31
2023-02-09T17:59:20.285Z,50.92
2023-02-09T18:01:50.700Z,50.96
2023-02-09T18:04:21.375Z,51.00
2023-02-09T18:06:50.021Z,51.56
2023-02-09T18:09:19.711Z,51.84
2023-02-09T18:12:02.069Z,51.50
2023-02-09T18:14:32.750Z,51.65
2023-02-09T18:17:01.859Z,51.46
2023-02-09T18:19:30.220Z,51.61
2023-02-09T18:22:00.363Z,52.11
2023-02-09T18:24:33.263Z,52.24
2023-02-09T18:27:01.982Z,52.30
2023-02-09T18:29:30.520Z,52.23
2023-02-09T18:31:59.846Z,51.62
2023-02-09T18:34:29.143Z,52.11
2023-02-09T18:36:57.524Z,51.93
2023-02-09T18:39:25.903Z,52.17
2023-02-09T18:41:56.875Z,52.67
2023-02-09T18:44:29.178Z,53.00
2023-02-09T18:47:00.296Z,53.36
2023-02-09T18:49:29.047Z,53.00
2023-02-09T18:51:59.352Z,52.78
2023-02-09T18:54:28.898Z,53.22
2023-02-09T18:56:58.787Z,52.67
2023-02-09T18:59:29.498Z,52.68
2023-02-09T19:01:58.530Z,52.75
2023-02-09T19:04:27.033Z,52.95
2023-02-09T19:06:55.866Z,53.29
2023-02-09T19:09:24.236Z,53.35
2023-02-09T19:11:52.599Z,53.79
2023-02-09T19:14:40.598Z,53.70
2023-02-09T19:17:12.541Z,54.03
2023-02-09T19:19:40.885Z,54.05
2023-02-09T19:22:10.054Z,54.20
2023-02-09T19:24:38.373Z,54.19
2023-02-09T19:27:09.391Z,54.28
2023-02-09T19:29:41.276Z,54.14
2023-02-09T19:32:09.942Z,54.19
2023-02-09T19:34:40.993Z,54.10
2023-02-09T19:37:11.260Z,54.35
2023-02-09T19:39:41.352Z,54.48
2023-02-09T19:42:09.812Z,54.43
2023-02-09T19:44:39.538Z,54.66
2023-02-09T19:47:08.510Z,54.61
2023-02-09T19:49:36.864Z,54.55
2023-02-09T19:52:05.711Z,54.67
2023-02-09T19:54:35.044Z,54.49
2023-02-09T19:57:04.311Z,54.45
2023-02-09T19:59:32.736Z,54.68
2023-02-09T20:02:02.461Z,54.98
2023-02-09T20:04:30.902Z,54.64
2023-02-09T20:06:59.312Z,54.51
2023-02-09T20:09:27.686Z,54.17
2023-02-09T20:14:25.319Z,54.54
2023-02-09T20:16:54.406Z,54.48
2023-02-09T20:19:24.585Z,55.09
2023-02-09T20:21:52.934Z,54.74
2023-02-09T20:24:21.544Z,55.16
2023-02-09T20:26:49.882Z,55.26
2023-02-09T20:29:19.214Z,54.81
2023-02-09T20:31:47.561Z,55.06
2023-02-09T20:34:16.683Z,54.73
2023-02-09T20:36:48.237Z,55.03
2023-02-09T20:39:17.902Z,55.27
2023-02-09T20:42:01.101Z,54.94
2023-02-09T20:44:46.610Z,55.09
2023-02-09T20:47:14.968Z,54.77
2023-02-09T20:49:43.639Z,55.32
2023-02-09T20:52:13.312Z,55.01
2023-02-09T20:54:41.793Z,55.07
2023-02-09T20:57:10.118Z,55.11
2023-02-09T20:59:38.523Z,55.40
2023-02-09T21:02:06.904Z,55.52
2023-02-09T21:04:35.277Z,55.43
2023-02-09T21:07:04.201Z,55.47
2023-02-09T21:09:34.312Z,55.36
2023-02-09T21:12:02.745Z,55.87
2023-02-09T21:14:41.516Z,55.71
2023-02-09T21:17:10.866Z,55.71
2023-02-09T21:19:39.319Z,55.67
2023-02-09T21:22:08.347Z,55.49
2023-02-09T21:24:39.491Z,55.25
2023-02-09T21:27:07.938Z,55.30
2023-02-09T21:29:36.709Z,55.41
2023-02-09T21:32:07.929Z,55.56
2023-02-09T21:34:36.285Z,55.65
2023-02-09T21:37:07.922Z,55.58
2023-02-09T21:39:36.376Z,55.35
2023-02-09T21:42:23.946Z,55.26
2023-02-09T21:44:54.066Z,55.26
2023-02-09T21:47:25.398Z,55.05
2023-02-09T21:49:53.784Z,55.11
2023-02-09T21:52:22.208Z,55.01
2023-02-09T21:54:50.741Z,54.77
2023-02-09T21:57:20.969Z,54.69
2023-02-09T21:59:49.359Z,54.65
2023-02-09T22:02:19.316Z,54.59
2023-02-09T22:04:49.736Z,54.83
2023-02-09T22:07:18.094Z,54.81
2023-02-09T22:09:46.490Z,54.90
2023-02-09T22:12:14.873Z,54.66
2023-02-09T22:14:44.605Z,54.35
2023-02-09T22:17:13.012Z,54.56
2023-02-09T22:19:41.337Z,54.79
2023-02-09T22:22:11.257Z,54.41
2023-02-09T22:24:39.649Z,54.21
2023-02-09T22:27:08.012Z,54.73
2023-02-09T22:29:36.273Z,54.24
2023-02-09T22:32:06.289Z,54.36
2023-02-09T22:34:34.754Z,54.40
2023-02-09T22:37:03.333Z,54.70
2023-02-09T22:39:31.780Z,55.03
2023-02-09T22:42:00.769Z,55.17
2023-02-09T22:44:30.423Z,54.99
2023-02-09T22:46:58.784Z,55.29
2023-02-09T22:49:28.482Z,55.42
2023-02-09T22:51:56.852Z,55.18
2023-02-09T22:54:25.207Z,54.86
2023-02-09T22:56:53.616Z,55.15
2023-02-09T22:59:21.922Z,55.42
2023-02-09T23:01:50.304Z,55.20
2023-02-09T23:04:18.651Z,55.28
2023-02-09T23:06:48.445Z,55.15
2023-02-09T23:09:16.807Z,55.32
2023-02-09T23:11:45.369Z,55.65
2023-02-09T23:14:13.944Z,55.48
2023-02-09T23:16:44.901Z,55.48
2023-02-09T23:19:15.885Z,55.58
2023-02-09T23:21:45.834Z,55.66
2023-02-09T23:24:17.195Z,55.47
2023-02-09T23:26:46.024Z,55.67
2023-02-09T23:29:16.113Z,55.66
2023-02-09T23:31:45.315Z,55.15
2023-02-09T23:34:16.338Z,55.43
2023-02-09T23:36:44.849Z,55.48
2023-02-09T23:39:17.779Z,55.36
2023-02-09T23:41:46.585Z,55.46
2023-02-09T23:44:15.004Z,55.31
2023-02-09T23:46:43.456Z,55.44
2023-02-09T23:49:12.385Z,55.46
2023-02-09T23:51:40.729Z,55.48
2023-02-09T23:54:09.470Z,55.09
2023-02-09T23:56:39.193Z,55.32
2023-02-09T23:59:10.361Z,55.23
